KR-0330 weather

Haeundae Grand Hotel Heliport
Busan, Busan Gwang'yeogsi, South Korea

Public forecast

Using degrees Celsius for public forecast. Weather courtesy of forecast.io.

METAR (pilot weather report)

Closest report is Gimhae International Airport, 10.7 nm (19.9 km) W. Retrieved 2019/08/25 14:00 UTC (42 minutes ago):

RKPK 251400Z 35004KT CAVOK 22/19 Q1013

TAF (pilot weather forecast)

Closest forecast is Gimhae International Airport, 10.7 nm (19.9 km) W. Retrieved 2019/08/25 12:00 UTC (3 hours ago):

TAF RKPK 251100Z 2512/2618 03006KT CAVOK TN19/2520Z TX28/2605Z BECMG 2602/2603 15008KT BECMG 2612/2613 03006KT